Weather observations for the past three days for
Roseburg Regional Airport
Metric (Imperial)
Date Time (pdt) Wind (kph) Vis. (km) Weather Sky Cond. Temperature (ºC) Relative Humidity Wind Chill (°C) Heat Index (°C) Pressure Precipitation (cm)
Air Dwpt 6 hour altimeter (cm) sea level (mb) 1 hr 3 hr 6 hr
Max. Min.
06 05:53 N 9 16.09 Overcast OVC012 12.2 10 87% 76.5 1019.9
06 04:53 N 6 16.09 Overcast OVC019 11.7 9.4 16.1 10.6 86% 76.45 1019.3
06 03:53 Calm 16.09 Fair CLR 11.1 9.4 89% 76.43 1018.8
06 02:53 Calm 16.09 Fair CLR 11.7 9.4 86% 76.38 1018.2
06 01:53 Calm 16.09 Fair CLR 12.2 10 87% 76.35 1018.0
06 00:53 N 7 16.09 Fair CLR 14.4 10.6 78% 76.33 1017.7
05 23:53 NE 6 16.09 Fair CLR 15 10.6 75% 76.3 1017.1
05 22:53 N 6 16.09 Fair CLR 15.6 11.1 22.8 15.6 75% 76.25 1016.5
05 21:53 Calm 16.09 Fair CLR 16.7 11.1 70% 76.2 1015.9
05 20:53 NE 9 16.09 Fair CLR 18.3 11.1 63% 76.15 1015.1
05 19:53 N 13 16.09 Fair CLR 20.6 11.1 55% 76.07 1014.1
05 18:53 N 15 16.09 Fair CLR 22.8 11.1 48% 76.07 1013.9
05 17:53 NE 13 16.09 Fair CLR 22.2 11.1 50% 76.05 1013.7
05 16:53 N 11 16.09 Fair CLR 22.2 11.1 22.8 14.4 50% 76.05 1013.8
05 15:53 Calm 16.09 Fair CLR 20.6 11.1 55% 76.07 1014.2
05 14:53 N 9 16.09 Fair CLR 20 10.6 55% 76.15 1014.9
05 13:53 N 9 16.09 A Few Clouds FEW026 18.3 10 59% 76.17 1015.6
05 12:53 N 11 16.09 Overcast OVC025 16.7 10 65% 76.2 1015.9
05 11:53 NE 6 16.09 Overcast OVC024 16.1 9.4 65% 76.23 1016.0
05 10:53 Calm 16.09 Overcast OVC024 14.4 9.4 15 12.2 72% 76.2 1015.9
05 09:53 Calm 16.09 Overcast OVC021 13.9 9.4 74% 76.2 1015.9
05 08:53 N 6 16.09 Overcast BKN015 OVC024 13.3 9.4 77% 76.2 1016.0
05 07:53 Calm 16.09 Overcast FEW011 BKN020 OVC027 12.8 9.4 80% 76.2 1015.9
05 06:53 Calm 16.09 Overcast BKN012 OVC020 12.2 10 87% 76.17 1015.7
05 05:53 N 7 16.09 Overcast OVC018 12.2 10 87% 76.17 1015.3
05 04:53 N 11 16.09 Overcast OVC019 12.8 10 14.4 12.2 83% 76.12 1014.9
05 03:53 N 7 16.09 Overcast OVC019 12.8 10 83% 76.12 1014.6
05 02:53 N 11 16.09 Overcast OVC018 12.8 10 83% 76.12 1014.7
05 01:53 N 9 16.09 Overcast OVC018 13.3 10 81% 76.12 1014.7
05 00:53 N 9 16.09 Overcast OVC021 13.9 10 78% 76.12 1014.8
04 23:53 N 11 16.09 Overcast OVC021 14.4 9.4 72% 76.12 1015.0
04 22:53 N 11 16.09 Overcast OVC022 14.4 9.4 20.6 14.4 72% 76.1 1014.6
04 21:53 NW 11 16.09 Overcast OVC022 14.4 9.4 72% 76.1 1014.4
04 20:53 NW 11 16.09 Overcast OVC022 15 10 72% 76.05 1013.7
04 19:53 NW 11 16.09 Mostly Cloudy BKN023 15.6 10 70% 75.97 1012.9
04 18:53 NW 15 16.09 Overcast OVC028 17.8 10 60% 75.95 1012.4
04 17:53 NW 20 G 31 16.09 Fair CLR 18.9 10.6 59% 75.92 1012.2
04 16:53 N 19 G 43 16.09 Fair CLR 20.6 11.1 21.1 14.4 55% 75.92 1012.1
04 15:53 N 20 G 33 16.09 Fair CLR 20.6 10.6 53% 75.95 1012.3
04 14:53 NE 9 16.09 Partly Cloudy SCT030 19.4 10.6 57% 76 1013.0
04 13:53 NE 11 16.09 Mostly Cloudy BKN028 18.3 10.6 61% 76.02 1013.5
04 12:53 NE 7 16.09 Overcast OVC023 16.1 10 67% 76.07 1014.1
04 11:53 NW 7 16.09 Overcast OVC021 15.6 10 70% 76.1 1014.4
04 10:53 N 7 16.09 Overcast OVC018 14.4 10 14.4 12.2 75% 76.1 1014.5
04 09:53 Calm 16.09 Overcast OVC018 13.9 10 78% 76.1 1014.3
04 08:53 Calm 16.09 Overcast OVC015 13.3 10 81% 76.07 1014.2
04 07:53 N 9 16.09 Overcast OVC016 13.3 9.4 77% 76.07 1014.0
04 06:53 N 11 16.09 Overcast OVC018 12.8 9.4 80% 76.05 1013.5
04 05:53 NE 7 16.09 Overcast OVC017 12.2 9.4 83% 76 1013.1
04 04:53 N 7 16.09 Fair CLR 12.2 9.4 20 12.2 83% 75.97 1012.6
04 03:53 N 9 16.09 Fair CLR 12.8 9.4 80% 75.95 1012.3
04 02:53 N 11 16.09 Fair CLR 13.9 10 78% 75.95 1012.2
04 01:53 N 15 16.09 Fair CLR 14.4 10.6 78% 75.92 1012.0
04 00:53 N 11 16.09 Fair CLR 16.1 11.1 72% 75.9 1011.6
03 23:53 N 11 16.09 Fair CLR 17.8 11.1 65% 75.82 1010.7
03 22:53 N 11 16.09 Fair CLR 20 11.1 27.8 20 57% 75.77 1009.9
03 21:53 N 9 16.09 Fair CLR 22.2 12.2 53% 75.69 1009.0
03 20:53 Calm 16.09 A Few Clouds FEW100 23.9 8.9 39% 25 75.62 1007.9
03 19:53 Vrbl 9 16.09 Fair CLR 25 9.4 37% 26 75.57 1007.4
03 18:53 NE 26 G 52 16.09 Mostly Cloudy BKN120 26.1 8.3 32% 26 75.62 1007.8
03 17:53 E 7 16.09 Fair CLR 27.8 12.2 38% 27 75.57 1007.0
03 16:53 E 13 16.09 Fair CLR 27.8 12.2 29.4 18.3 38% 27 75.54 1006.7
03 15:53 N 7 16.09 Fair CLR 29.4 12.2 35% 29 75.57 1007.1
03 14:53 Calm 16.09 Fair CLR 28.3 13.3 40% 28 75.62 1007.9
03 13:53 Calm 16.09 Fair CLR 24.4 12.8 48% 26 75.69 1008.9
03 12:53 NW 9 16.09 Fair CLR 22.2 13.9 59% 75.77 1009.9
03 11:53 Calm 16.09 Fair CLR 20.6 12.2 59% 75.82 1010.5
03 10:53 Calm 16.09 Fair CLR 18.3 12.8 18.3 10.6 70% 75.84 1011.1
03 09:53 Calm 16.09 Fair CLR 13.3 12.2 93% 75.9 1011.6
03 08:53 Calm 9.66 Fog/Mist OVC002 11.7 11.7 100% 75.9 1011.9
03 07:53 S 6 0.40 Fog VV002 11.1 11.1 100% 75.92 1012.0
03 06:53 SE 6 0.40 Fog VV002 11.1 10.6 97% 75.9 1011.6
Date Time (pdt) Wind (kph) Vis. (km) Weather Sky Cond. Air Dwpt Max. Min. Relative Humidity Wind Chill (°C) Heat Index (°C) altimeter (cm) sea level (mb) 1 hr 3 hr 6 hr
6 hour
Temperature (ºC) Pressure Precipitation (cm)